Cardedeu, Spain
Current Conditions -  °F | °C
As of 12:00 PM on Thursday 18 Dec 2014 (Local Time) from LELL Reporting Station
Few Clouds Few Clouds  
Wind Chill: 59°   Ceiling: Unl
Heat Index: 59°   Visibility: 6mi
Dew Point: 46°   Wind: 0mph
Humidity: 63%   Direction: NA
Pressure: 30.21"   Gusts: NA
Location:  41.64°N, 2.36°E
Report Text: LELL 181100Z 00000KT 9999 FEW070 15/08 Q1023
Loading
Personal Weather Stations






























Interactive Weather Map New forecast layout! Learn more

10-Day Weather Forecast

Advertisements
Track Severe Weather on mobile